Airport View

Enter AWOS ICAO identifier for current METAR.

ex. KFNL

KPSO 211215Z AUTO 00000KT 10SM CLR 12/02 A3038 RMK AO2 LTG DSNT N T01200018

21 Aug 2018 12:16

Frequency: 127.175

Phone: 970-731-0365

Other Area AWOS: KCPW - KDRO - KRCV - KTEX

TAF KALS 211145Z 2112/2212 15006KT P6SM FEW150 FM212000 21010KT P6SM VCTS SCT070CB BKN200 FM220200 17007KT P6SM VCSH BKN100 FM220600 VRB05KT P6SM VCSH BKN040